sensor_id;sensor_type;location;lat;lon;timestamp;temperature;humidity
60027;DHT22;45891;53.006;6.512;2023-08-08T00:02:16;13.40;99.90
60027;DHT22;45891;53.006;6.512;2023-08-08T00:04:42;13.40;99.90
60027;DHT22;45891;53.006;6.512;2023-08-08T00:07:08;13.40;99.90
60027;DHT22;45891;53.006;6.512;2023-08-08T00:09:34;13.40;99.90
60027;DHT22;45891;53.006;6.512;2023-08-08T00:12:01;13.40;99.90
60027;DHT22;45891;53.006;6.512;2023-08-08T00:14:27;13.40;99.90
60027;DHT22;45891;53.006;6.512;2023-08-08T00:16:53;13.40;99.90
60027;DHT22;45891;53.006;6.512;2023-08-08T00:19:19;13.40;99.90
60027;DHT22;45891;53.006;6.512;2023-08-08T00:21:45;13.40;99.90
60027;DHT22;45891;53.006;6.512;2023-08-08T00:24:11;13.40;99.90
60027;DHT22;45891;53.006;6.512;2023-08-08T00:26:37;13.40;99.90
60027;DHT22;45891;53.006;6.512;2023-08-08T00:29:03;13.40;99.90
60027;DHT22;45891;53.006;6.512;2023-08-08T00:31:29;13.30;99.90
60027;DHT22;45891;53.006;6.512;2023-08-08T00:33:55;13.40;99.90
60027;DHT22;45891;53.006;6.512;2023-08-08T00:36:21;13.40;99.90
60027;DHT22;45891;53.006;6.512;2023-08-08T00:38:47;13.40;99.90
60027;DHT22;45891;53.006;6.512;2023-08-08T00:41:15;13.40;99.90
60027;DHT22;45891;53.006;6.512;2023-08-08T00:43:41;13.40;99.90
60027;DHT22;45891;53.006;6.512;2023-08-08T00:46:09;13.40;99.90
60027;DHT22;45891;53.006;6.512;2023-08-08T00:48:36;13.40;99.90
60027;DHT22;45891;53.006;6.512;2023-08-08T00:51:02;13.40;99.90
60027;DHT22;45891;53.006;6.512;2023-08-08T00:53:30;13.30;99.90
60027;DHT22;45891;53.006;6.512;2023-08-08T00:55:58;13.30;99.90
60027;DHT22;45891;53.006;6.512;2023-08-08T00:58:25;13.30;99.90
60027;DHT22;45891;53.006;6.512;2023-08-08T01:00:51;13.30;99.90
60027;DHT22;45891;53.006;6.512;2023-08-08T01:03:20;13.30;99.90
60027;DHT22;45891;53.006;6.512;2023-08-08T01:06:03;13.30;99.90
60027;DHT22;45891;53.006;6.512;2023-08-08T01:08:38;13.30;99.90
60027;DHT22;45891;53.006;6.512;2023-08-08T01:11:05;13.30;99.90
60027;DHT22;45891;53.006;6.512;2023-08-08T01:13:32;13.20;99.90
60027;DHT22;45891;53.006;6.512;2023-08-08T01:15:59;13.20;99.90
60027;DHT22;45891;53.006;6.512;2023-08-08T01:18:26;13.20;99.90
60027;DHT22;45891;53.006;6.512;2023-08-08T01:20:53;13.20;99.90
60027;DHT22;45891;53.006;6.512;2023-08-08T01:25:56;13.20;99.90
60027;DHT22;45891;53.006;6.512;2023-08-08T01:28:23;13.10;99.90
60027;DHT22;45891;53.006;6.512;2023-08-08T01:30:50;13.10;99.90
60027;DHT22;45891;53.006;6.512;2023-08-08T01:33:16;13.10;99.90
60027;DHT22;45891;53.006;6.512;2023-08-08T01:35:45;13.10;99.90
60027;DHT22;45891;53.006;6.512;2023-08-08T01:38:19;13.00;99.90
60027;DHT22;45891;53.006;6.512;2023-08-08T01:40:46;13.00;99.90
60027;DHT22;45891;53.006;6.512;2023-08-08T01:43:15;13.00;99.90
60027;DHT22;45891;53.006;6.512;2023-08-08T01:45:43;13.00;99.90
60027;DHT22;45891;53.006;6.512;2023-08-08T01:48:10;13.00;99.90
60027;DHT22;45891;53.006;6.512;2023-08-08T01:50:37;13.00;99.90
60027;DHT22;45891;53.006;6.512;2023-08-08T01:53:03;13.00;99.90
60027;DHT22;45891;53.006;6.512;2023-08-08T01:55:30;13.00;99.90
60027;DHT22;45891;53.006;6.512;2023-08-08T01:57:57;13.00;99.90
60027;DHT22;45891;53.006;6.512;2023-08-08T02:00:23;13.00;99.90
60027;DHT22;45891;53.006;6.512;2023-08-08T02:02:49;13.00;99.90
60027;DHT22;45891;53.006;6.512;2023-08-08T02:05:15;13.00;99.90
60027;DHT22;45891;53.006;6.512;2023-08-08T02:07:41;13.00;99.90
60027;DHT22;45891;53.006;6.512;2023-08-08T02:10:07;13.00;99.90
60027;DHT22;45891;53.006;6.512;2023-08-08T02:12:33;13.00;99.90
60027;DHT22;45891;53.006;6.512;2023-08-08T02:15:00;13.00;99.90
60027;DHT22;45891;53.006;6.512;2023-08-08T02:17:26;13.00;99.90
60027;DHT22;45891;53.006;6.512;2023-08-08T02:19:52;13.00;99.90
60027;DHT22;45891;53.006;6.512;2023-08-08T02:22:19;13.00;99.90
60027;DHT22;45891;53.006;6.512;2023-08-08T02:24:45;13.00;99.90
60027;DHT22;45891;53.006;6.512;2023-08-08T02:27:11;13.00;99.90
60027;DHT22;45891;53.006;6.512;2023-08-08T02:29:38;13.00;99.90
60027;DHT22;45891;53.006;6.512;2023-08-08T02:32:04;13.00;99.90
60027;DHT22;45891;53.006;6.512;2023-08-08T02:34:30;13.00;99.90
60027;DHT22;45891;53.006;6.512;2023-08-08T02:36:56;13.00;99.90
60027;DHT22;45891;53.006;6.512;2023-08-08T02:39:23;13.00;99.90
60027;DHT22;45891;53.006;6.512;2023-08-08T02:41:49;13.00;99.90
60027;DHT22;45891;53.006;6.512;2023-08-08T02:44:15;13.00;99.90
60027;DHT22;45891;53.006;6.512;2023-08-08T02:46:41;13.00;99.90
60027;DHT22;45891;53.006;6.512;2023-08-08T02:49:07;13.00;99.90
60027;DHT22;45891;53.006;6.512;2023-08-08T02:51:33;13.00;99.90
60027;DHT22;45891;53.006;6.512;2023-08-08T02:53:59;13.00;99.90
60027;DHT22;45891;53.006;6.512;2023-08-08T02:56:25;13.00;99.90
60027;DHT22;45891;53.006;6.512;2023-08-08T02:58:51;13.00;99.90
60027;DHT22;45891;53.006;6.512;2023-08-08T03:01:17;13.00;99.90
60027;DHT22;45891;53.006;6.512;2023-08-08T03:03:44;13.00;99.90
60027;DHT22;45891;53.006;6.512;2023-08-08T03:06:10;13.00;99.90
60027;DHT22;45891;53.006;6.512;2023-08-08T03:08:36;12.90;99.90
60027;DHT22;45891;53.006;6.512;2023-08-08T03:11:02;13.00;99.90
60027;DHT22;45891;53.006;6.512;2023-08-08T03:13:28;13.00;99.90
60027;DHT22;45891;53.006;6.512;2023-08-08T03:15:54;12.90;99.90
60027;DHT22;45891;53.006;6.512;2023-08-08T03:18:21;12.90;99.90
60027;DHT22;45891;53.006;6.512;2023-08-08T03:20:48;12.90;99.90
60027;DHT22;45891;53.006;6.512;2023-08-08T03:23:15;12.90;99.90
60027;DHT22;45891;53.006;6.512;2023-08-08T03:25:41;12.90;99.90
60027;DHT22;45891;53.006;6.512;2023-08-08T03:28:07;13.00;99.90
60027;DHT22;45891;53.006;6.512;2023-08-08T03:30:33;13.00;99.90
60027;DHT22;45891;53.006;6.512;2023-08-08T03:33:01;13.00;99.90
60027;DHT22;45891;53.006;6.512;2023-08-08T03:35:27;13.00;99.90
60027;DHT22;45891;53.006;6.512;2023-08-08T03:37:53;13.00;99.90
60027;DHT22;45891;53.006;6.512;2023-08-08T03:40:20;13.00;99.90
60027;DHT22;45891;53.006;6.512;2023-08-08T03:42:46;13.00;99.90
60027;DHT22;45891;53.006;6.512;2023-08-08T03:45:12;13.00;99.90
60027;DHT22;45891;53.006;6.512;2023-08-08T03:47:38;12.90;99.90
60027;DHT22;45891;53.006;6.512;2023-08-08T03:50:06;12.90;99.90
60027;DHT22;45891;53.006;6.512;2023-08-08T03:52:33;12.90;99.90
60027;DHT22;45891;53.006;6.512;2023-08-08T03:55:01;12.90;99.90
60027;DHT22;45891;53.006;6.512;2023-08-08T03:57:27;12.80;99.90
60027;DHT22;45891;53.006;6.512;2023-08-08T03:59:53;12.80;99.90
60027;DHT22;45891;53.006;6.512;2023-08-08T04:02:20;12.80;99.90
60027;DHT22;45891;53.006;6.512;2023-08-08T04:04:46;12.90;99.90
60027;DHT22;45891;53.006;6.512;2023-08-08T04:07:12;12.90;99.90
60027;DHT22;45891;53.006;6.512;2023-08-08T04:09:38;12.90;99.90
60027;DHT22;45891;53.006;6.512;2023-08-08T04:12:04;12.80;99.90
60027;DHT22;45891;53.006;6.512;2023-08-08T04:14:30;12.80;99.90
60027;DHT22;45891;53.006;6.512;2023-08-08T04:16:56;12.80;99.90
60027;DHT22;45891;53.006;6.512;2023-08-08T04:19:22;12.80;99.90
60027;DHT22;45891;53.006;6.512;2023-08-08T04:21:49;12.80;99.90
60027;DHT22;45891;53.006;6.512;2023-08-08T04:24:15;12.80;99.90
60027;DHT22;45891;53.006;6.512;2023-08-08T04:26:41;12.80;99.90
60027;DHT22;45891;53.006;6.512;2023-08-08T04:29:07;12.90;99.90
60027;DHT22;45891;53.006;6.512;2023-08-08T04:31:33;12.90;99.90
60027;DHT22;45891;53.006;6.512;2023-08-08T04:34:00;13.00;99.90
60027;DHT22;45891;53.006;6.512;2023-08-08T04:36:27;13.00;99.90
60027;DHT22;45891;53.006;6.512;2023-08-08T04:38:53;13.00;99.90
60027;DHT22;45891;53.006;6.512;2023-08-08T04:41:19;13.10;99.90
60027;DHT22;45891;53.006;6.512;2023-08-08T04:43:46;13.10;99.90
60027;DHT22;45891;53.006;6.512;2023-08-08T04:46:12;13.10;99.90
60027;DHT22;45891;53.006;6.512;2023-08-08T04:48:38;13.10;99.90
60027;DHT22;45891;53.006;6.512;2023-08-08T04:51:05;13.10;99.90
60027;DHT22;45891;53.006;6.512;2023-08-08T04:53:31;13.00;99.90
60027;DHT22;45891;53.006;6.512;2023-08-08T04:55:58;13.00;99.90
60027;DHT22;45891;53.006;6.512;2023-08-08T04:58:24;13.00;99.90
60027;DHT22;45891;53.006;6.512;2023-08-08T05:00:50;13.00;99.90
60027;DHT22;45891;53.006;6.512;2023-08-08T05:03:17;13.10;99.90
60027;DHT22;45891;53.006;6.512;2023-08-08T05:05:43;13.10;99.90
60027;DHT22;45891;53.006;6.512;2023-08-08T05:08:13;13.10;99.90
60027;DHT22;45891;53.006;6.512;2023-08-08T05:10:39;13.20;99.90
60027;DHT22;45891;53.006;6.512;2023-08-08T05:13:06;13.30;99.90
60027;DHT22;45891;53.006;6.512;2023-08-08T05:15:32;13.30;99.90
60027;DHT22;45891;53.006;6.512;2023-08-08T05:17:58;13.50;99.90
60027;DHT22;45891;53.006;6.512;2023-08-08T05:20:25;13.60;99.90
60027;DHT22;45891;53.006;6.512;2023-08-08T05:22:51;13.70;99.90
60027;DHT22;45891;53.006;6.512;2023-08-08T05:25:17;13.80;99.90
60027;DHT22;45891;53.006;6.512;2023-08-08T05:27:44;14.00;99.90
60027;DHT22;45891;53.006;6.512;2023-08-08T05:30:10;14.20;99.90
60027;DHT22;45891;53.006;6.512;2023-08-08T05:32:36;14.40;99.90
60027;DHT22;45891;53.006;6.512;2023-08-08T05:35:02;14.80;99.90
60027;DHT22;45891;53.006;6.512;2023-08-08T05:37:30;15.10;99.90
60027;DHT22;45891;53.006;6.512;2023-08-08T05:39:56;15.30;99.90
60027;DHT22;45891;53.006;6.512;2023-08-08T05:42:22;15.50;99.90
60027;DHT22;45891;53.006;6.512;2023-08-08T05:44:48;15.50;99.90
60027;DHT22;45891;53.006;6.512;2023-08-08T05:47:14;15.70;99.90
60027;DHT22;45891;53.006;6.512;2023-08-08T05:49:40;15.80;99.90
60027;DHT22;45891;53.006;6.512;2023-08-08T05:52:10;15.90;99.90
60027;DHT22;45891;53.006;6.512;2023-08-08T05:54:36;16.10;99.90
60027;DHT22;45891;53.006;6.512;2023-08-08T05:57:02;16.20;99.90
60027;DHT22;45891;53.006;6.512;2023-08-08T05:59:29;16.30;99.90
60027;DHT22;45891;53.006;6.512;2023-08-08T06:01:55;16.40;99.90
60027;DHT22;45891;53.006;6.512;2023-08-08T06:04:21;16.60;99.90
60027;DHT22;45891;53.006;6.512;2023-08-08T06:06:47;16.60;99.90
60027;DHT22;45891;53.006;6.512;2023-08-08T06:09:15;16.70;99.90
60027;DHT22;45891;53.006;6.512;2023-08-08T06:11:41;16.80;99.90
60027;DHT22;45891;53.006;6.512;2023-08-08T06:14:07;16.90;99.90
60027;DHT22;45891;53.006;6.512;2023-08-08T06:16:33;16.90;99.90
60027;DHT22;45891;53.006;6.512;2023-08-08T06:18:59;17.00;99.90
60027;DHT22;45891;53.006;6.512;2023-08-08T06:21:26;17.00;99.90
60027;DHT22;45891;53.006;6.512;2023-08-08T06:23:52;17.00;99.90
60027;DHT22;45891;53.006;6.512;2023-08-08T06:26:21;17.00;99.90
60027;DHT22;45891;53.006;6.512;2023-08-08T06:28:47;17.00;99.90
60027;DHT22;45891;53.006;6.512;2023-08-08T06:31:14;17.00;99.90
60027;DHT22;45891;53.006;6.512;2023-08-08T06:33:40;17.20;99.90
60027;DHT22;45891;53.006;6.512;2023-08-08T06:36:06;17.30;99.90
60027;DHT22;45891;53.006;6.512;2023-08-08T06:38:33;17.40;99.90
60027;DHT22;45891;53.006;6.512;2023-08-08T06:41:00;17.60;99.90
60027;DHT22;45891;53.006;6.512;2023-08-08T06:43:26;17.60;99.90
60027;DHT22;45891;53.006;6.512;2023-08-08T06:45:52;17.60;99.90
60027;DHT22;45891;53.006;6.512;2023-08-08T06:48:18;17.80;99.90
60027;DHT22;45891;53.006;6.512;2023-08-08T06:50:44;17.90;99.90
60027;DHT22;45891;53.006;6.512;2023-08-08T06:53:11;17.90;99.90
60027;DHT22;45891;53.006;6.512;2023-08-08T06:55:37;17.90;99.90
60027;DHT22;45891;53.006;6.512;2023-08-08T06:58:03;17.90;99.90
60027;DHT22;45891;53.006;6.512;2023-08-08T07:00:29;18.00;99.90
60027;DHT22;45891;53.006;6.512;2023-08-08T07:02:55;17.90;99.90
60027;DHT22;45891;53.006;6.512;2023-08-08T07:05:21;18.10;99.90
60027;DHT22;45891;53.006;6.512;2023-08-08T07:07:51;17.90;99.90
60027;DHT22;45891;53.006;6.512;2023-08-08T07:10:18;18.00;99.90
60027;DHT22;45891;53.006;6.512;2023-08-08T07:12:45;18.20;99.90
60027;DHT22;45891;53.006;6.512;2023-08-08T07:15:11;18.10;99.90
60027;DHT22;45891;53.006;6.512;2023-08-08T07:17:37;18.20;99.90
60027;DHT22;45891;53.006;6.512;2023-08-08T07:20:04;18.20;99.90
60027;DHT22;45891;53.006;6.512;2023-08-08T07:22:32;18.20;99.90
60027;DHT22;45891;53.006;6.512;2023-08-08T07:24:59;18.50;99.90
60027;DHT22;45891;53.006;6.512;2023-08-08T07:27:26;18.70;99.90
60027;DHT22;45891;53.006;6.512;2023-08-08T07:29:53;18.40;99.90
60027;DHT22;45891;53.006;6.512;2023-08-08T07:32:19;18.10;99.90
60027;DHT22;45891;53.006;6.512;2023-08-08T07:34:45;18.00;99.90
60027;DHT22;45891;53.006;6.512;2023-08-08T07:37:11;17.70;99.90
60027;DHT22;45891;53.006;6.512;2023-08-08T07:39:37;17.60;99.90
60027;DHT22;45891;53.006;6.512;2023-08-08T07:42:03;17.60;99.90
60027;DHT22;45891;53.006;6.512;2023-08-08T07:44:29;17.70;99.90
60027;DHT22;45891;53.006;6.512;2023-08-08T07:46:57;17.90;99.90
60027;DHT22;45891;53.006;6.512;2023-08-08T07:49:23;17.90;99.90
60027;DHT22;45891;53.006;6.512;2023-08-08T07:51:49;17.70;99.90
60027;DHT22;45891;53.006;6.512;2023-08-08T07:54:15;17.70;99.90
60027;DHT22;45891;53.006;6.512;2023-08-08T07:56:42;17.60;99.90
60027;DHT22;45891;53.006;6.512;2023-08-08T07:59:08;17.50;99.90
60027;DHT22;45891;53.006;6.512;2023-08-08T08:01:35;17.40;99.90
60027;DHT22;45891;53.006;6.512;2023-08-08T08:04:02;17.50;99.90
60027;DHT22;45891;53.006;6.512;2023-08-08T08:06:28;17.60;99.90
60027;DHT22;45891;53.006;6.512;2023-08-08T08:08:54;17.60;99.90
60027;DHT22;45891;53.006;6.512;2023-08-08T08:11:20;17.60;99.90
60027;DHT22;45891;53.006;6.512;2023-08-08T08:13:47;17.90;99.90
60027;DHT22;45891;53.006;6.512;2023-08-08T08:16:13;18.10;99.90
60027;DHT22;45891;53.006;6.512;2023-08-08T08:18:39;17.90;99.90
60027;DHT22;45891;53.006;6.512;2023-08-08T08:21:05;17.80;99.90
60027;DHT22;45891;53.006;6.512;2023-08-08T08:23:31;18.00;99.90
60027;DHT22;45891;53.006;6.512;2023-08-08T08:25:58;18.10;99.90
60027;DHT22;45891;53.006;6.512;2023-08-08T08:28:25;18.20;99.90
60027;DHT22;45891;53.006;6.512;2023-08-08T08:30:52;18.20;99.90
60027;DHT22;45891;53.006;6.512;2023-08-08T08:33:18;18.30;99.90
60027;DHT22;45891;53.006;6.512;2023-08-08T08:35:44;18.10;99.90
60027;DHT22;45891;53.006;6.512;2023-08-08T08:38:11;18.20;99.90
60027;DHT22;45891;53.006;6.512;2023-08-08T08:40:40;18.10;99.90
60027;DHT22;45891;53.006;6.512;2023-08-08T08:43:07;17.80;99.90
60027;DHT22;45891;53.006;6.512;2023-08-08T08:45:38;17.50;99.90
60027;DHT22;45891;53.006;6.512;2023-08-08T08:48:09;17.30;99.90
60027;DHT22;45891;53.006;6.512;2023-08-08T08:50:39;16.90;99.90
60027;DHT22;45891;53.006;6.512;2023-08-08T08:53:05;16.70;99.90
60027;DHT22;45891;53.006;6.512;2023-08-08T08:55:32;16.50;99.90
60027;DHT22;45891;53.006;6.512;2023-08-08T08:57:59;16.40;99.90
60027;DHT22;45891;53.006;6.512;2023-08-08T09:00:25;16.30;99.90
60027;DHT22;45891;53.006;6.512;2023-08-08T09:02:52;16.30;99.90
60027;DHT22;45891;53.006;6.512;2023-08-08T09:05:21;16.40;99.90
60027;DHT22;45891;53.006;6.512;2023-08-08T09:07:48;16.40;99.90
60027;DHT22;45891;53.006;6.512;2023-08-08T09:10:15;16.90;99.90
60027;DHT22;45891;53.006;6.512;2023-08-08T09:12:42;17.20;99.90
60027;DHT22;45891;53.006;6.512;2023-08-08T09:15:09;17.10;99.90
60027;DHT22;45891;53.006;6.512;2023-08-08T09:17:36;16.90;99.90
60027;DHT22;45891;53.006;6.512;2023-08-08T09:20:02;16.60;99.90
60027;DHT22;45891;53.006;6.512;2023-08-08T09:22:29;16.60;99.90
60027;DHT22;45891;53.006;6.512;2023-08-08T09:24:56;16.50;99.90
60027;DHT22;45891;53.006;6.512;2023-08-08T09:27:22;16.30;99.90
60027;DHT22;45891;53.006;6.512;2023-08-08T09:29:48;16.70;99.90
60027;DHT22;45891;53.006;6.512;2023-08-08T09:32:15;17.70;99.90
60027;DHT22;45891;53.006;6.512;2023-08-08T09:34:43;18.70;99.90
60027;DHT22;45891;53.006;6.512;2023-08-08T09:37:10;19.10;99.90
60027;DHT22;45891;53.006;6.512;2023-08-08T09:39:36;19.30;99.90
60027;DHT22;45891;53.006;6.512;2023-08-08T09:42:03;19.30;99.90
60027;DHT22;45891;53.006;6.512;2023-08-08T09:44:32;18.70;99.90
60027;DHT22;45891;53.006;6.512;2023-08-08T09:47:01;18.40;99.90
60027;DHT22;45891;53.006;6.512;2023-08-08T09:49:27;18.10;99.90
60027;DHT22;45891;53.006;6.512;2023-08-08T09:51:54;17.80;99.90
60027;DHT22;45891;53.006;6.512;2023-08-08T09:54:21;17.70;99.90
60027;DHT22;45891;53.006;6.512;2023-08-08T09:56:49;18.00;99.90
60027;DHT22;45891;53.006;6.512;2023-08-08T09:59:16;18.70;99.90
60027;DHT22;45891;53.006;6.512;2023-08-08T10:01:44;19.70;99.90
60027;DHT22;45891;53.006;6.512;2023-08-08T10:04:12;19.80;99.90
60027;DHT22;45891;53.006;6.512;2023-08-08T10:06:39;20.10;99.90
60027;DHT22;45891;53.006;6.512;2023-08-08T10:09:05;19.60;99.90
60027;DHT22;45891;53.006;6.512;2023-08-08T10:11:32;19.20;99.90
60027;DHT22;45891;53.006;6.512;2023-08-08T10:14:02;18.70;99.90
60027;DHT22;45891;53.006;6.512;2023-08-08T10:16:32;18.30;99.90
60027;DHT22;45891;53.006;6.512;2023-08-08T10:19:01;19.30;99.90
60027;DHT22;45891;53.006;6.512;2023-08-08T10:21:33;19.90;99.90
60027;DHT22;45891;53.006;6.512;2023-08-08T10:24:06;19.80;99.90
60027;DHT22;45891;53.006;6.512;2023-08-08T10:26:33;19.60;99.90
60027;DHT22;45891;53.006;6.512;2023-08-08T10:29:01;19.10;99.90
60027;DHT22;45891;53.006;6.512;2023-08-08T10:31:32;20.20;99.90
60027;DHT22;45891;53.006;6.512;2023-08-08T10:34:03;20.70;99.90
60027;DHT22;45891;53.006;6.512;2023-08-08T10:36:43;20.10;99.90
60027;DHT22;45891;53.006;6.512;2023-08-08T10:39:14;19.90;99.90
60027;DHT22;45891;53.006;6.512;2023-08-08T10:41:49;20.30;99.90
60027;DHT22;45891;53.006;6.512;2023-08-08T10:44:25;20.40;99.10
60027;DHT22;45891;53.006;6.512;2023-08-08T10:46:52;20.60;99.20
60027;DHT22;45891;53.006;6.512;2023-08-08T10:49:19;20.90;99.70
60027;DHT22;45891;53.006;6.512;2023-08-08T10:51:47;21.50;98.40
60027;DHT22;45891;53.006;6.512;2023-08-08T10:56:52;20.30;99.90
60027;DHT22;45891;53.006;6.512;2023-08-08T10:59:27;19.80;99.80
60027;DHT22;45891;53.006;6.512;2023-08-08T11:01:55;19.40;99.90
60027;DHT22;45891;53.006;6.512;2023-08-08T11:04:23;18.60;99.90
60027;DHT22;45891;53.006;6.512;2023-08-08T11:06:50;18.40;99.90
60027;DHT22;45891;53.006;6.512;2023-08-08T11:09:18;18.20;99.90
60027;DHT22;45891;53.006;6.512;2023-08-08T11:11:45;18.00;99.90
60027;DHT22;45891;53.006;6.512;2023-08-08T11:16:41;18.40;99.90
60027;DHT22;45891;53.006;6.512;2023-08-08T11:19:08;19.20;99.90
60027;DHT22;45891;53.006;6.512;2023-08-08T11:21:41;19.80;99.90
60027;DHT22;45891;53.006;6.512;2023-08-08T11:24:08;20.00;99.70
60027;DHT22;45891;53.006;6.512;2023-08-08T11:26:36;20.00;99.70
60027;DHT22;45891;53.006;6.512;2023-08-08T11:29:04;20.40;99.80
60027;DHT22;45891;53.006;6.512;2023-08-08T11:31:33;20.60;98.50
60027;DHT22;45891;53.006;6.512;2023-08-08T11:33:59;19.80;99.20
60027;DHT22;45891;53.006;6.512;2023-08-08T11:36:33;19.30;98.90
60027;DHT22;45891;53.006;6.512;2023-08-08T11:39:02;19.30;99.20
60027;DHT22;45891;53.006;6.512;2023-08-08T11:41:34;19.70;98.90
60027;DHT22;45891;53.006;6.512;2023-08-08T11:44:05;20.20;98.60
60027;DHT22;45891;53.006;6.512;2023-08-08T11:46:33;20.00;98.80
60027;DHT22;45891;53.006;6.512;2023-08-08T11:49:06;19.50;98.50
60027;DHT22;45891;53.006;6.512;2023-08-08T11:51:33;19.20;98.70
60027;DHT22;45891;53.006;6.512;2023-08-08T11:54:02;19.70;98.50
60027;DHT22;45891;53.006;6.512;2023-08-08T11:56:28;19.70;98.50
60027;DHT22;45891;53.006;6.512;2023-08-08T11:58:55;19.60;98.50
60027;DHT22;45891;53.006;6.512;2023-08-08T12:01:25;19.90;98.10
60027;DHT22;45891;53.006;6.512;2023-08-08T12:03:52;19.40;97.80
60027;DHT22;45891;53.006;6.512;2023-08-08T12:06:20;19.10;98.40
60027;DHT22;45891;53.006;6.512;2023-08-08T12:08:47;19.00;97.40
60027;DHT22;45891;53.006;6.512;2023-08-08T12:11:14;19.10;98.40
60027;DHT22;45891;53.006;6.512;2023-08-08T12:13:41;18.90;98.70
60027;DHT22;45891;53.006;6.512;2023-08-08T12:16:10;18.90;99.30
60027;DHT22;45891;53.006;6.512;2023-08-08T12:18:37;19.80;99.00
60027;DHT22;45891;53.006;6.512;2023-08-08T12:21:08;20.40;98.20
60027;DHT22;45891;53.006;6.512;2023-08-08T12:23:35;21.00;97.30
60027;DHT22;45891;53.006;6.512;2023-08-08T12:26:04;21.20;97.00
60027;DHT22;45891;53.006;6.512;2023-08-08T12:28:33;21.40;97.30
60027;DHT22;45891;53.006;6.512;2023-08-08T12:31:00;21.80;96.20
60027;DHT22;45891;53.006;6.512;2023-08-08T12:33:26;22.10;96.80
60027;DHT22;45891;53.006;6.512;2023-08-08T12:35:52;21.70;95.80
60027;DHT22;45891;53.006;6.512;2023-08-08T12:38:18;21.50;95.80
60027;DHT22;45891;53.006;6.512;2023-08-08T12:40:46;21.70;96.10
60027;DHT22;45891;53.006;6.512;2023-08-08T12:43:12;21.50;96.70
60027;DHT22;45891;53.006;6.512;2023-08-08T12:45:44;21.70;96.20
60027;DHT22;45891;53.006;6.512;2023-08-08T12:48:11;22.00;95.60
60027;DHT22;45891;53.006;6.512;2023-08-08T12:50:37;21.90;95.70
60027;DHT22;45891;53.006;6.512;2023-08-08T12:53:04;21.70;96.00
60027;DHT22;45891;53.006;6.512;2023-08-08T12:55:31;21.80;95.70
60027;DHT22;45891;53.006;6.512;2023-08-08T12:57:57;21.50;95.30
60027;DHT22;45891;53.006;6.512;2023-08-08T13:00:23;21.90;95.70
60027;DHT22;45891;53.006;6.512;2023-08-08T13:02:49;22.00;96.20
60027;DHT22;45891;53.006;6.512;2023-08-08T13:05:15;21.70;95.20
60027;DHT22;45891;53.006;6.512;2023-08-08T13:07:41;21.10;95.70
60027;DHT22;45891;53.006;6.512;2023-08-08T13:10:08;20.70;95.70
60027;DHT22;45891;53.006;6.512;2023-08-08T13:12:34;20.20;96.50
60027;DHT22;45891;53.006;6.512;2023-08-08T13:15:01;19.90;97.10
60027;DHT22;45891;53.006;6.512;2023-08-08T13:17:27;19.70;97.50
60027;DHT22;45891;53.006;6.512;2023-08-08T13:19:53;19.10;98.10
60027;DHT22;45891;53.006;6.512;2023-08-08T13:22:19;19.50;98.20
60027;DHT22;45891;53.006;6.512;2023-08-08T13:24:46;20.00;97.80
60027;DHT22;45891;53.006;6.512;2023-08-08T13:27:12;20.60;97.50
60027;DHT22;45891;53.006;6.512;2023-08-08T13:29:38;21.10;97.40
60027;DHT22;45891;53.006;6.512;2023-08-08T13:32:04;21.30;96.00
60027;DHT22;45891;53.006;6.512;2023-08-08T13:34:30;21.70;96.30
60027;DHT22;45891;53.006;6.512;2023-08-08T13:36:56;21.10;96.00
60027;DHT22;45891;53.006;6.512;2023-08-08T13:39:22;21.10;96.00
60027;DHT22;45891;53.006;6.512;2023-08-08T13:41:49;21.30;96.50
60027;DHT22;45891;53.006;6.512;2023-08-08T13:44:15;21.70;96.50
60027;DHT22;45891;53.006;6.512;2023-08-08T13:46:41;22.00;96.40
60027;DHT22;45891;53.006;6.512;2023-08-08T13:49:08;21.60;96.00
60027;DHT22;45891;53.006;6.512;2023-08-08T13:51:34;20.50;96.30
60027;DHT22;45891;53.006;6.512;2023-08-08T13:54:00;19.60;97.10
60027;DHT22;45891;53.006;6.512;2023-08-08T13:56:26;19.20;97.20
60027;DHT22;45891;53.006;6.512;2023-08-08T13:58:52;19.30;97.60
60027;DHT22;45891;53.006;6.512;2023-08-08T14:01:19;19.10;97.70
60027;DHT22;45891;53.006;6.512;2023-08-08T14:03:45;19.70;97.60
60027;DHT22;45891;53.006;6.512;2023-08-08T14:06:11;19.50;97.20
60027;DHT22;45891;53.006;6.512;2023-08-08T14:08:37;19.20;97.10
60027;DHT22;45891;53.006;6.512;2023-08-08T14:11:03;19.00;97.20
60027;DHT22;45891;53.006;6.512;2023-08-08T14:13:29;19.30;97.40
60027;DHT22;45891;53.006;6.512;2023-08-08T14:15:55;19.00;97.80
60027;DHT22;45891;53.006;6.512;2023-08-08T14:18:21;18.80;98.50
60027;DHT22;45891;53.006;6.512;2023-08-08T14:20:47;18.50;98.80
60027;DHT22;45891;53.006;6.512;2023-08-08T14:23:13;18.30;98.50
60027;DHT22;45891;53.006;6.512;2023-08-08T14:25:40;18.40;98.70
60027;DHT22;45891;53.006;6.512;2023-08-08T14:28:06;18.60;98.40
60027;DHT22;45891;53.006;6.512;2023-08-08T14:30:33;18.50;98.70
60027;DHT22;45891;53.006;6.512;2023-08-08T14:32:59;19.40;98.40
60027;DHT22;45891;53.006;6.512;2023-08-08T14:35:25;20.00;97.90
60027;DHT22;45891;53.006;6.512;2023-08-08T14:37:51;20.50;97.50
60027;DHT22;45891;53.006;6.512;2023-08-08T14:40:17;20.90;96.90
60027;DHT22;45891;53.006;6.512;2023-08-08T14:42:43;21.10;96.20
60027;DHT22;45891;53.006;6.512;2023-08-08T14:45:11;21.00;96.50
60027;DHT22;45891;53.006;6.512;2023-08-08T14:47:37;21.40;96.90
60027;DHT22;45891;53.006;6.512;2023-08-08T14:50:03;21.40;96.70
60027;DHT22;45891;53.006;6.512;2023-08-08T14:52:30;20.80;96.50
60027;DHT22;45891;53.006;6.512;2023-08-08T14:54:56;21.20;96.60
60027;DHT22;45891;53.006;6.512;2023-08-08T14:57:22;20.60;96.80
60027;DHT22;45891;53.006;6.512;2023-08-08T14:59:48;20.80;97.10
60027;DHT22;45891;53.006;6.512;2023-08-08T15:02:14;20.70;97.10
60027;DHT22;45891;53.006;6.512;2023-08-08T15:04:40;20.30;97.30
60027;DHT22;45891;53.006;6.512;2023-08-08T15:07:06;19.70;97.80
60027;DHT22;45891;53.006;6.512;2023-08-08T15:09:32;19.50;97.90
60027;DHT22;45891;53.006;6.512;2023-08-08T15:11:58;19.90;97.90
60027;DHT22;45891;53.006;6.512;2023-08-08T15:14:24;19.70;97.40
60027;DHT22;45891;53.006;6.512;2023-08-08T15:16:53;19.60;97.20
60027;DHT22;45891;53.006;6.512;2023-08-08T15:19:19;20.00;97.10
60027;DHT22;45891;53.006;6.512;2023-08-08T15:21:46;20.00;96.40
60027;DHT22;45891;53.006;6.512;2023-08-08T15:24:12;19.80;96.50
60027;DHT22;45891;53.006;6.512;2023-08-08T15:26:38;19.80;96.60
60027;DHT22;45891;53.006;6.512;2023-08-08T15:29:04;20.60;96.50
60027;DHT22;45891;53.006;6.512;2023-08-08T15:31:30;21.10;95.70
60027;DHT22;45891;53.006;6.512;2023-08-08T15:33:58;20.70;95.40
60027;DHT22;45891;53.006;6.512;2023-08-08T15:36:26;20.30;95.60